Aldenville, Pennsylvania
Current Conditions -  °F | °C
As of 1:15 PM on Friday 19 Dec 2014 (Local Time) from KMSV Reporting Station
Overcast Overcast  
Wind Chill: 15°   Ceiling: 1700
Heat Index: 27°   Visibility: 10mi
Dew Point: 19°   Wind: 15mph
Humidity: 74%   Direction: 290°WNW
Pressure: 30.01"   Gusts: 24mph
Location:  41.65°N, 75.36°W
Report Text: KMSV 191815Z AUTO 29013G21KT 10SM OVC017 M03/M07 A3001 RMK AO1
Loading
Personal Weather Stations






























Interactive Weather Map New forecast layout! Learn more

10-Day Weather Forecast

Advertisements
Track Severe Weather on mobile